Pagina principală
Imagini satelitare Vremea 15-zileClimăMare Cicloane Trăsnet AeroporturiÎntrebări Noutăţi Despre
Meteo : Europa Africa America de Nord America de Sud Asia Australia-Oceania Alte
Limbi Contact

Bucureşti-Băneasa, România

Aurel Vlaicu

Latitudine: 44-30N, Longitudine: 026-08E, Altitudine: 90 m


METAR: LRBS 220230Z 08002KT CAVOK 09/09 Q1006 NOSIG
TAF: LRBS 212300Z 2200/2224 VRB04KT CAVOK TEMPO 2201/2206 3000 BR BECMG 2204/2206 06010KT

Oră: 06:07 (03:07 UTC)

observaţii meteorologice

Raportul a fost facut 37 minute în urmă, la 02:30 UTC
Vânt 2 kt de la Est
Temperatură 9°C
Umiditatea 100%
Presiune 1006 hPa
Vizibilitate 10 km sau mai mult
Vizibilitatea, norii şi fenomenele meteo actuale mai bune decât valorile sau condiţiile stabilite

Unităţile de măsură

Prognoză

Raportul a fost facut 4 ore si 7 minute în urmă, la 23:00 UTC
Prognoza valabil de 22la ora 00 UTC până 22la ora 24 UTC
Vânt 4 kt Variabil
Vizibilitate 10 km sau mai mult
Vizibilitatea, norii şi fenomenele meteo actuale mai bune decât valorile sau condiţiile stabilite
Temporar
de 22la ora 01 UTC până 22la ora 06 UTC
Vizibilitate: 3000 m
Aer ceţos
Devenire
de 22la ora 04 UTC până 22la ora 06 UTC
Vânt 10 kt de la Est/Nord-Est
Informaţiile de pe acest site fac obiectul unei denegări de responsabilitate
Meteo : Europa Africa America de Nord America de Sud Asia Australia-Oceania Alte
Imagini satelitare Vremea 15-zileClimăMare Cicloane Trăsnet AeroporturiÎntrebări Limbi Contact Noutăţi Despre